Ana Sayfa
METAR-TAF:

METAR-TAF

Havaalanları :

Cibuti, Cibuti

Enlem: 11-33N, Boylam: 043-10E, yükseklik: 49 m

Güncel hava durumu gözlemi

Rapor saat 08:00 UTC de 15 saat ve 47 dakika önce yapıldı.
Rüzgar doğudan 11 kt
Sıcaklık 30°C
Nem 75%
Basınç 1018 hPa
2000 ft yükseklikte parçalı bulutlu

METAR: HDAM 160800Z 08011KT 9/9 SCT020 30/25 Q1018

Saat: 02:47 (23:47 UTC)

Tahmin

Ayın 16'si saat 18 UTC'den ayın 17'si saat 18 UTC'ye kadar geçerli Tahmin
Rüzgar değişken yönden 5 kt
Görüş mesafesi 10 km veya daha fazla
2000 ft yükseklikte parçalı bulutlu
Dönüşüyor
ayın 17'si saat 00 UTC'den ayın 17'si saat 06 UTC'ye kadar
Rüzgar doğudan 10 kt
2000 ft yükseklikte parçalı bulutlu
Dönüşüyor
ayın 17'si saat 06 UTC'den ayın 17'si saat 12 UTC'ye kadar
Rüzgar doğudan 10 kt ve 15 kt'a kadar ani rüzgarlar
2300 ft yükseklikte parçalı bulutlu
3000 ft yükseklikte parçalı bulutlu

TAF: HDAM 1618/1718 VRB05KT 9999 SCT020 BECMG 1700/1706 10010KT SCT020 BECMG 1706/1712 08010G15KT SCT023 SCT030

4.000'den fazla havaalanı için hava durumu gözlemleri ve tahminleri (METAR ve TAF raporları).

Kullanılabilir istasyonlar harita üzerinde sarı ve kırmızı noktalarla gösterilir.

İstasyonun adını görmek için fareyi noktanın üzerinde gezdirin.

Sonrasında hava gözlem ve tahminlerini görmek için tıklayın.

Haritayı değiştirmek için: yaklaştırmak için siyah artı işaretli yeşil düğmeye ve uzaklaştırmak için de eksi işaretli düğmeye hızla tıklayın; bitişik haritalar için yeşil okları kullanın.


METAR-TAF: